Terminal Aerodrome Forecast
Issued by NWS

Home | Current Version | Previous Version | Text Only | Print | Product List | Glossary Off
Versions: 1 2 3 4 5 6 7 8 9 10 11 12 13 14 15 16

000
FTUS43 KGRB 182335
TAFATW
TAF
KATW 182335Z 1900/1924 19009G14KT P6SM -TSRA SCT050 BKN080CB
      TEMPO 1900/1903 28020G35KT 1SM +TSRA BKN025 OVC035CB
     FM190300 28003KT P6SM SCT040 BKN070
     FM190800 35005KT P6SM BKN100
     FM191500 01006KT P6SM SCT040
     FM192000 12006KT P6SM SKC=

USA.gov is the U.S. government's official web portal to all federal, state and local government web resources and services.